createdAt,value
2019-06-01T00:00:51.175Z,100952.84
2019-06-01T00:03:20.608Z,100951.18
2019-06-01T00:05:50.035Z,100949.34
2019-06-01T00:08:19.418Z,100944.00
2019-06-01T00:10:49.449Z,100938.84
2019-06-01T00:13:19.118Z,100948.19
2019-06-01T00:15:48.565Z,100945.01
2019-06-01T00:18:17.991Z,100947.80
2019-06-01T00:20:48.638Z,100950.47
2019-06-01T00:23:18.501Z,100950.17
2019-06-01T00:25:48.678Z,100946.97
2019-06-01T00:28:18.133Z,100935.99
2019-06-01T00:30:47.944Z,100941.33
2019-06-01T00:33:17.406Z,100934.66
2019-06-01T00:35:47.476Z,100932.16
2019-06-01T00:38:16.952Z,100928.66
2019-06-01T00:40:46.357Z,100933.32
2019-06-01T00:43:15.738Z,100934.66
2019-06-01T00:45:46.247Z,100938.95
2019-06-01T00:48:15.978Z,100936.77
2019-06-01T00:50:45.329Z,100936.41
2019-06-01T00:53:14.736Z,100933.56
2019-06-01T00:55:45.999Z,100925.05
2019-06-01T00:58:15.514Z,100917.36
2019-06-01T01:00:46.122Z,100917.69
2019-06-01T01:03:16.049Z,100915.20
2019-06-01T01:05:46.942Z,100914.87
2019-06-01T01:08:16.550Z,100914.04
2019-06-01T01:10:46.860Z,100913.89
2019-06-01T01:13:19.228Z,100913.41
2019-06-01T01:15:49.293Z,100906.41
2019-06-01T01:18:18.832Z,100909.80
2019-06-01T01:20:48.338Z,100910.98
2019-06-01T01:23:17.720Z,100907.66
2019-06-01T01:25:48.316Z,100910.83
2019-06-01T01:28:17.670Z,100908.01
2019-06-01T01:31:03.105Z,100912.19
2019-06-01T01:33:18.754Z,100908.36
2019-06-01T01:35:48.130Z,100911.53
2019-06-01T01:38:18.796Z,100916.58
2019-06-01T01:40:48.220Z,100913.58
2019-06-01T01:43:17.624Z,100912.25
2019-06-01T01:45:47.045Z,100910.77
2019-06-01T01:48:16.532Z,100914.59
2019-06-01T01:50:45.930Z,100914.59
2019-06-01T01:53:15.342Z,100902.07
2019-06-01T01:55:45.099Z,100905.07
2019-06-01T01:58:16.839Z,100906.70
2019-06-01T02:00:48.455Z,100906.67
2019-06-01T02:03:17.892Z,100904.83
2019-06-01T02:05:47.532Z,100906.83
2019-06-01T02:08:17.018Z,100902.31
2019-06-01T02:10:46.398Z,100896.83
2019-06-01T02:13:15.756Z,100894.48
2019-06-01T02:15:45.115Z,100890.48
2019-06-01T02:18:14.513Z,100892.14
2019-06-01T02:20:46.040Z,100896.14
2019-06-01T02:23:16.269Z,100893.98
2019-06-01T02:25:45.651Z,100897.98
2019-06-01T02:28:15.073Z,100892.47
2019-06-01T02:30:44.727Z,100892.94
2019-06-01T02:33:14.086Z,100891.43
2019-06-01T02:35:43.502Z,100895.55
2019-06-01T02:38:12.975Z,100879.00
2019-06-01T02:40:42.464Z,100881.81
2019-06-01T02:43:12.254Z,100875.55
2019-06-01T02:45:42.108Z,100873.31
2019-06-01T02:48:11.658Z,100869.53
2019-06-01T02:50:41.355Z,100868.92
2019-06-01T02:53:13.172Z,100866.74
2019-06-01T02:55:42.589Z,100869.16
2019-06-01T02:58:12.172Z,100859.97
2019-06-01T03:01:27.465Z,100856.77
2019-06-01T03:03:57.687Z,100858.73
2019-06-01T03:06:31.996Z,100858.16
2019-06-01T03:09:06.534Z,100851.75
2019-06-01T03:11:37.239Z,100844.54
2019-06-01T03:14:27.908Z,100840.09
2019-06-01T03:17:00.046Z,100846.20
2019-06-01T03:19:31.673Z,100845.05
2019-06-01T03:22:05.665Z,100846.53
2019-06-01T03:24:37.866Z,100836.52
2019-06-01T03:27:09.087Z,100830.09
2019-06-01T03:29:42.761Z,100841.27
2019-06-01T03:32:33.256Z,100825.12
2019-06-01T03:34:43.502Z,100829.75
2019-06-01T03:37:13.406Z,100819.51
2019-06-01T03:39:43.106Z,100815.14
2019-06-01T03:42:13.049Z,100818.03
2019-06-01T03:44:42.455Z,100825.33
2019-06-01T03:47:14.175Z,100811.48
2019-06-01T03:49:43.640Z,100816.69
2019-06-01T03:52:13.165Z,100820.27
2019-06-01T03:54:42.572Z,100816.64
2019-06-01T03:57:20.697Z,100822.11
2019-06-01T03:59:50.138Z,100823.64
2019-06-01T04:02:32.455Z,100817.57
2019-06-01T04:04:50.685Z,100813.32
2019-06-01T04:07:20.254Z,100812.62
2019-06-01T04:09:49.632Z,100810.45
2019-06-01T04:12:19.054Z,100813.56
2019-06-01T04:14:48.427Z,100806.59
2019-06-01T04:17:17.969Z,100808.33
2019-06-01T04:19:48.469Z,100805.17
2019-06-01T04:22:17.835Z,100803.23
2019-06-01T04:24:47.252Z,100806.44
2019-06-01T04:27:16.661Z,100802.41
2019-06-01T04:29:46.166Z,100796.96
2019-06-01T04:32:15.588Z,100803.98
2019-06-01T04:34:45.009Z,100803.05
2019-06-01T04:37:14.884Z,100805.64
2019-06-01T04:39:44.289Z,100801.73
2019-06-01T04:42:14.020Z,100800.08
2019-06-01T04:44:43.453Z,100807.73
2019-06-01T04:47:12.955Z,100801.84
2019-06-01T04:49:42.371Z,100800.19
2019-06-01T04:52:13.451Z,100795.77
2019-06-01T04:54:43.012Z,100790.80
2019-06-01T04:57:13.056Z,100796.19
2019-06-01T04:59:42.501Z,100794.13
2019-06-01T05:02:13.161Z,100788.26
2019-06-01T05:04:43.606Z,100789.70
2019-06-01T05:07:13.575Z,100782.45
2019-06-01T05:09:43.271Z,100778.94
2019-06-01T05:12:13.655Z,100782.16
2019-06-01T05:14:44.098Z,100772.87
2019-06-01T05:17:15.107Z,100773.70
2019-06-01T05:19:45.386Z,100769.47
2019-06-01T05:22:15.130Z,100767.09
2019-06-01T05:24:44.565Z,100756.03
2019-06-01T05:27:15.159Z,100751.69
2019-06-01T05:29:44.772Z,100750.87
2019-06-01T05:32:14.650Z,100745.09
2019-06-01T05:34:44.067Z,100742.81
2019-06-01T05:37:14.265Z,100738.27
2019-06-01T05:39:43.779Z,100721.22
2019-06-01T05:42:13.196Z,100720.81
2019-06-01T05:44:42.708Z,100712.86
2019-06-01T05:47:12.279Z,100712.94
2019-06-01T05:49:42.775Z,100703.50
2019-06-01T05:52:14.961Z,100706.49
2019-06-01T05:54:44.359Z,100703.80
2019-06-01T05:57:14.705Z,100718.37
2019-06-01T05:59:44.162Z,100719.20
2019-06-01T06:02:13.576Z,100725.19
2019-06-01T06:04:43.138Z,100729.39
2019-06-01T06:07:12.889Z,100727.83
2019-06-01T06:09:42.441Z,100722.84
2019-06-01T06:12:15.315Z,100721.48
2019-06-01T06:14:47.421Z,100710.73
2019-06-01T06:17:19.540Z,100705.20
2019-06-01T06:19:48.521Z,100710.16
2019-06-01T06:22:18.279Z,100696.39
2019-06-01T06:24:47.712Z,100698.19
2019-06-01T06:27:17.168Z,100685.17
2019-06-01T06:29:46.600Z,100681.17
2019-06-01T06:32:17.072Z,100678.09
2019-06-01T06:34:46.649Z,100674.32
2019-06-01T06:37:16.068Z,100674.34
2019-06-01T06:39:45.443Z,100666.58
2019-06-01T06:42:16.074Z,100665.11
2019-06-01T06:44:45.707Z,100659.77
2019-06-01T06:47:15.070Z,100649.72
2019-06-01T06:49:44.764Z,100644.49
2019-06-01T06:52:15.190Z,100638.88
2019-06-01T06:54:44.809Z,100642.55
2019-06-01T06:57:14.222Z,100638.86
2019-06-01T06:59:43.722Z,100636.97
2019-06-01T07:02:13.143Z,100634.91
2019-06-01T07:04:42.647Z,100628.58
2019-06-01T07:07:14.868Z,100632.81
2019-06-01T07:09:44.276Z,100630.98
2019-06-01T07:12:13.667Z,100625.33
2019-06-01T07:14:43.132Z,100628.35
2019-06-01T07:17:15.875Z,100616.37
2019-06-01T07:19:45.202Z,100613.25
2019-06-01T07:22:16.965Z,100616.31
2019-06-01T07:24:45.828Z,100614.55
2019-06-01T07:27:15.204Z,100625.47
2019-06-01T07:29:44.717Z,100615.13
2019-06-01T07:32:14.056Z,100610.89
2019-06-01T07:34:43.600Z,100607.81
2019-06-01T07:37:13.111Z,100608.55
2019-06-01T07:39:42.451Z,100605.78
2019-06-01T07:42:13.895Z,100597.48
2019-06-01T07:44:43.393Z,100593.95
2019-06-01T07:47:12.772Z,100596.13
2019-06-01T07:49:42.339Z,100585.87
2019-06-01T07:52:14.739Z,100585.14
2019-06-01T07:54:44.333Z,100576.16
2019-06-01T07:57:13.782Z,100580.20
2019-06-01T07:59:43.369Z,100578.71
2019-06-01T08:02:12.737Z,100563.42
2019-06-01T08:04:53.147Z,100568.64
2019-06-01T08:07:13.668Z,100565.25
2019-06-01T08:09:43.037Z,100565.36
2019-06-01T08:12:12.503Z,100558.09
2019-06-01T08:14:42.058Z,100546.64
2019-06-01T08:17:12.207Z,100538.80
2019-06-01T08:19:42.324Z,100534.64
2019-06-01T08:22:11.961Z,100541.73
2019-06-01T08:24:41.391Z,100538.54
2019-06-01T08:27:10.958Z,100527.00
2019-06-01T08:29:40.370Z,100527.88
2019-06-01T08:32:09.923Z,100527.63
2019-06-01T08:34:39.799Z,100521.80
2019-06-01T08:37:09.391Z,100520.53
2019-06-01T08:39:39.037Z,100525.02
2019-06-01T08:42:08.482Z,100521.17
2019-06-01T08:44:37.893Z,100516.70
2019-06-01T08:47:07.349Z,100512.01
2019-06-01T08:49:36.760Z,100508.41
2019-06-01T08:52:10.431Z,100500.52
2019-06-01T08:54:39.909Z,100504.28
2019-06-01T08:57:10.616Z,100504.43
2019-06-01T08:59:42.954Z,100503.36
2019-06-01T09:02:12.435Z,100494.14
2019-06-01T09:04:42.084Z,100494.59
2019-06-01T09:07:11.831Z,100482.52
2019-06-01T09:09:41.308Z,100475.08
2019-06-01T09:12:11.168Z,100472.75
2019-06-01T09:14:42.886Z,100475.83
2019-06-01T09:17:18.348Z,100485.67
2019-06-01T09:19:45.449Z,100484.30
2019-06-01T09:22:15.332Z,100480.41
2019-06-01T09:24:44.678Z,100468.91
2019-06-01T09:27:14.562Z,100475.36
2019-06-01T09:29:44.833Z,100469.17
2019-06-01T09:32:21.413Z,100464.86
2019-06-01T09:34:48.531Z,100458.75
2019-06-01T09:37:17.982Z,100463.80
2019-06-01T09:39:47.377Z,100463.77
2019-06-01T09:42:16.991Z,100467.20
2019-06-01T09:44:46.390Z,100460.89
2019-06-01T09:47:15.890Z,100456.77
2019-06-01T09:49:45.357Z,100446.16
2019-06-01T09:52:14.750Z,100448.88
2019-06-01T09:54:44.122Z,100442.29
2019-06-01T09:57:13.557Z,100439.42
2019-06-01T09:59:43.043Z,100432.21
2019-06-01T10:02:12.442Z,100432.83
2019-06-01T10:04:44.139Z,100419.67
2019-06-01T10:07:13.570Z,100419.74
2019-06-01T10:09:42.957Z,100414.06
2019-06-01T10:12:12.384Z,100421.67
2019-06-01T10:14:42.455Z,100408.69
2019-06-01T10:17:12.128Z,100419.61
2019-06-01T10:19:43.016Z,100409.81
2019-06-01T10:22:12.726Z,100407.31
2019-06-01T10:24:43.034Z,100409.15
2019-06-01T10:27:12.479Z,100407.23
2019-06-01T10:29:43.832Z,100418.06
2019-06-01T10:32:13.241Z,100423.72
2019-06-01T10:34:42.926Z,100418.78
2019-06-01T10:37:12.357Z,100417.66
2019-06-01T10:39:41.901Z,100418.45
2019-06-01T10:42:11.355Z,100413.83
2019-06-01T10:44:45.218Z,100411.07
2019-06-01T10:47:12.091Z,100415.91
2019-06-01T10:49:44.797Z,100409.09
2019-06-01T10:52:14.187Z,100402.27
2019-06-01T10:54:43.627Z,100411.75
2019-06-01T10:57:13.044Z,100410.63
2019-06-01T10:59:42.725Z,100403.32
2019-06-01T11:02:12.194Z,100406.59
2019-06-01T11:04:43.219Z,100415.00
2019-06-01T11:07:12.791Z,100405.65
2019-06-01T11:09:43.218Z,100397.13
2019-06-01T11:12:12.723Z,100409.52
2019-06-01T11:14:43.321Z,100401.52
2019-06-01T11:17:12.804Z,100402.03
2019-06-01T11:19:45.260Z,100397.59
2019-06-01T11:22:15.018Z,100397.81
2019-06-01T11:24:44.506Z,100394.06
2019-06-01T11:27:14.589Z,100387.03
2019-06-01T11:29:50.845Z,100385.95
2019-06-01T11:32:15.113Z,100380.42
2019-06-01T11:34:44.614Z,100373.25
2019-06-01T11:37:15.498Z,100372.62
2019-06-01T11:39:45.218Z,100356.97
2019-06-01T11:42:14.784Z,100360.52
2019-06-01T11:44:44.903Z,100349.76
2019-06-01T11:47:14.464Z,100342.30
2019-06-01T11:49:45.058Z,100347.29
2019-06-01T11:52:14.490Z,100344.34
2019-06-01T11:54:46.930Z,100339.45
2019-06-01T11:57:16.389Z,100328.31
2019-06-01T11:59:45.939Z,100314.44
2019-06-01T12:02:15.325Z,100317.97
2019-06-01T12:04:46.256Z,100307.07
2019-06-01T12:07:18.141Z,100306.27
2019-06-01T12:09:47.530Z,100312.52
2019-06-01T12:12:17.092Z,100297.58
2019-06-01T12:14:53.624Z,100304.07
2019-06-01T12:17:23.048Z,100296.71
2019-06-01T12:19:55.274Z,100289.66
2019-06-01T12:22:24.901Z,100279.61
2019-06-01T12:24:55.031Z,100279.08
2019-06-01T12:27:24.527Z,100268.16
2019-06-01T12:30:10.715Z,100262.70
2019-06-01T12:32:41.797Z,100276.23
2019-06-01T12:35:11.690Z,100267.73
2019-06-01T12:38:02.012Z,100264.47
2019-06-01T12:40:12.870Z,100261.47
2019-06-01T12:42:43.764Z,100253.90
2019-06-01T12:45:22.674Z,100254.71
2019-06-01T12:47:55.251Z,100253.39
2019-06-01T12:50:22.418Z,100254.80
2019-06-01T12:52:52.790Z,100237.05
2019-06-01T12:55:22.262Z,100234.55
2019-06-01T12:57:51.781Z,100230.41
2019-06-01T13:00:21.495Z,100219.78
2019-06-01T13:03:03.349Z,100218.48
2019-06-01T13:05:22.150Z,100212.55
2019-06-01T13:08:00.722Z,100209.34
2019-06-01T13:10:22.782Z,100207.20
2019-06-01T13:12:52.409Z,100205.09
2019-06-01T13:15:21.970Z,100202.92
2019-06-01T13:17:51.567Z,100202.40
2019-06-01T13:20:26.946Z,100192.32
2019-06-01T13:22:59.184Z,100195.32
2019-06-01T13:25:29.354Z,100191.52
2019-06-01T13:27:58.859Z,100193.16
2019-06-01T13:30:28.316Z,100199.14
2019-06-01T13:33:00.979Z,100192.61
2019-06-01T13:35:30.468Z,100198.06
2019-06-01T13:38:11.521Z,100193.70
2019-06-01T13:40:31.124Z,100191.22
2019-06-01T13:43:01.167Z,100185.28
2019-06-01T13:45:33.185Z,100180.34
2019-06-01T13:48:03.025Z,100178.70
2019-06-01T13:50:32.480Z,100177.09
2019-06-01T13:53:01.963Z,100176.81
2019-06-01T13:55:31.492Z,100187.94
2019-06-01T13:58:01.171Z,100165.38
2019-06-01T14:00:31.026Z,100169.95
2019-06-01T14:03:00.759Z,100178.86
2019-06-01T14:05:31.075Z,100170.67
2019-06-01T14:08:00.496Z,100182.63
2019-06-01T14:10:29.947Z,100179.38
2019-06-01T14:12:59.359Z,100177.77
2019-06-01T14:15:28.833Z,100179.15
2019-06-01T14:17:58.753Z,100171.88
2019-06-01T14:20:28.309Z,100161.32
2019-06-01T14:22:57.967Z,100158.61
2019-06-01T14:25:27.825Z,100167.31
2019-06-01T14:27:57.234Z,100166.75
2019-06-01T14:30:26.674Z,100161.05
2019-06-01T14:32:56.947Z,100158.32
2019-06-01T14:35:26.465Z,100166.49
2019-06-01T14:37:58.692Z,100162.16
2019-06-01T14:40:28.089Z,100173.84
2019-06-01T14:42:57.842Z,100168.66
2019-06-01T14:45:27.209Z,100168.92
2019-06-01T14:47:57.663Z,100170.56
2019-06-01T14:50:27.249Z,100168.92
2019-06-01T14:52:57.890Z,100160.27
2019-06-01T14:55:27.434Z,100160.78
2019-06-01T14:57:58.415Z,100163.22
2019-06-01T15:00:27.973Z,100157.52
2019-06-01T15:02:58.409Z,100165.93
2019-06-01T15:05:28.553Z,100162.66
2019-06-01T15:07:59.030Z,100157.50
2019-06-01T15:10:31.562Z,100163.44
2019-06-01T15:13:03.288Z,100154.42
2019-06-01T15:15:32.384Z,100151.35
2019-06-01T15:18:05.163Z,100156.26
2019-06-01T15:20:33.675Z,100144.14
2019-06-01T15:23:03.709Z,100147.19
2019-06-01T15:25:33.502Z,100134.69
2019-06-01T15:28:04.045Z,100135.27
2019-06-01T15:30:34.026Z,100144.19
2019-06-01T15:33:03.518Z,100144.46
2019-06-01T15:35:33.131Z,100146.07
2019-06-01T15:38:04.702Z,100144.70
2019-06-01T15:40:34.289Z,100147.94
2019-06-01T15:43:03.877Z,100152.71
2019-06-01T15:45:33.337Z,100151.53
2019-06-01T15:48:02.848Z,100147.12
2019-06-01T15:50:32.307Z,100162.24
2019-06-01T15:53:01.680Z,100158.23
2019-06-01T15:55:31.212Z,100165.58
2019-06-01T15:58:00.756Z,100156.36
2019-06-01T16:00:30.216Z,100155.87
2019-06-01T16:03:01.044Z,100155.33
2019-06-01T16:05:30.871Z,100159.86
2019-06-01T16:08:01.603Z,100151.27
2019-06-01T16:10:34.264Z,100157.38
2019-06-01T16:13:05.062Z,100156.69
2019-06-01T16:15:34.517Z,100162.13
2019-06-01T16:18:06.281Z,100166.36
2019-06-01T16:20:35.802Z,100156.26
2019-06-01T16:23:05.465Z,100165.50
2019-06-01T16:25:35.183Z,100158.64
2019-06-01T16:28:05.722Z,100150.11
2019-06-01T16:30:36.448Z,100164.72
2019-06-01T16:33:06.076Z,100157.87
2019-06-01T16:35:35.490Z,100157.75
2019-06-01T16:38:05.888Z,100157.88
2019-06-01T16:40:35.390Z,100159.52
2019-06-01T16:43:05.710Z,100153.88
2019-06-01T16:45:35.294Z,100152.89
2019-06-01T16:48:07.980Z,100154.28
2019-06-01T16:50:40.212Z,100147.45
2019-06-01T16:53:09.615Z,100145.03
2019-06-01T16:55:39.113Z,100139.05
2019-06-01T16:58:10.052Z,100144.74
2019-06-01T17:00:39.461Z,100142.56
2019-06-01T17:03:11.284Z,100143.36
2019-06-01T17:05:41.361Z,100143.91
2019-06-01T17:08:10.791Z,100144.94
2019-06-01T17:10:42.216Z,100153.76
2019-06-01T17:13:12.065Z,100161.21
2019-06-01T17:15:44.122Z,100158.41
2019-06-01T17:18:16.984Z,100158.00
2019-06-01T17:21:20.641Z,100161.36
2019-06-01T17:23:50.888Z,100155.59
2019-06-01T17:26:28.172Z,100156.64
2019-06-01T17:28:58.019Z,100156.33
2019-06-01T17:31:31.738Z,100162.80
2019-06-01T17:34:04.650Z,100163.30
2019-06-01T17:36:38.873Z,100157.55
2019-06-01T17:39:12.277Z,100160.88
2019-06-01T17:41:49.538Z,100149.52
2019-06-01T17:51:06.610Z,100147.95
2019-06-01T17:53:36.257Z,100150.18
2019-06-01T17:56:08.166Z,100156.13
2019-06-01T17:58:38.012Z,100160.41
2019-06-01T18:01:08.114Z,100152.18
2019-06-01T18:03:37.642Z,100147.75
2019-06-01T18:06:07.844Z,100151.73
2019-06-01T18:08:37.311Z,100162.40
2019-06-01T18:11:08.087Z,100165.41
2019-06-01T18:13:42.043Z,100175.71
2019-06-01T18:16:13.041Z,100178.98
2019-06-01T18:18:42.472Z,100180.36
2019-06-01T18:21:12.980Z,100186.21
2019-06-01T18:23:42.366Z,100183.09
2019-06-01T18:26:13.181Z,100190.30
2019-06-01T18:28:43.215Z,100183.04
2019-06-01T18:31:17.628Z,100183.58
2019-06-01T18:33:47.483Z,100185.84
2019-06-01T18:36:16.995Z,100188.53
2019-06-01T18:38:46.510Z,100190.38
2019-06-01T18:41:19.817Z,100197.35
2019-06-01T18:43:47.328Z,100214.84
2019-06-01T18:46:17.127Z,100209.97
2019-06-01T18:48:47.817Z,100213.63
2019-06-01T18:51:17.297Z,100220.22
2019-06-01T18:53:46.782Z,100217.43
2019-06-01T18:56:16.210Z,100227.62
2019-06-01T18:58:45.633Z,100233.45
2019-06-01T19:01:21.024Z,100232.86
2019-06-01T19:03:48.900Z,100231.97
2019-06-01T19:06:18.367Z,100235.53
2019-06-01T19:08:47.929Z,100239.58
2019-06-01T19:11:30.138Z,100240.61
2019-06-01T19:13:48.418Z,100237.99
2019-06-01T19:16:21.632Z,100232.65
2019-06-01T19:18:51.024Z,100235.66
2019-06-01T19:21:20.400Z,100244.56
2019-06-01T19:23:49.883Z,100245.98
2019-06-01T19:26:19.760Z,100251.99
2019-06-01T19:28:49.733Z,100257.20
2019-06-01T19:31:21.971Z,100256.70
2019-06-01T19:33:51.384Z,100267.08
2019-06-01T19:36:21.125Z,100260.73
2019-06-01T19:38:51.112Z,100265.78
2019-06-01T19:41:20.525Z,100252.77
2019-06-01T19:43:49.896Z,100258.16
2019-06-01T19:46:22.113Z,100266.23
2019-06-01T19:48:51.454Z,100256.15
2019-06-01T19:51:20.924Z,100260.31
2019-06-01T19:53:50.442Z,100250.25
2019-06-01T19:56:20.555Z,100251.75
2019-06-01T19:58:51.093Z,100251.91
2019-06-01T20:01:20.573Z,100253.14
2019-06-01T20:03:49.948Z,100248.59
2019-06-01T20:06:19.407Z,100246.83
2019-06-01T20:08:48.849Z,100244.21
2019-06-01T20:11:19.361Z,100234.91
2019-06-01T20:13:56.115Z,100242.83
2019-06-01T20:16:25.956Z,100243.23
2019-06-01T20:19:00.386Z,100238.81
2019-06-01T20:21:29.892Z,100229.55
2019-06-01T20:23:59.311Z,100234.73
2019-06-01T20:26:40.374Z,100233.53
2019-06-01T20:29:15.601Z,100240.70
2019-06-01T20:32:27.558Z,100241.73
2019-06-01T20:34:59.131Z,100237.36
2019-06-01T20:37:28.604Z,100246.77
2019-06-01T20:39:58.082Z,100251.84
2019-06-01T20:42:32.282Z,100249.98
2019-06-01T20:44:58.793Z,100249.59
2019-06-01T20:47:28.230Z,100249.30
2019-06-01T20:50:01.263Z,100250.34
2019-06-01T20:52:30.674Z,100248.39
2019-06-01T20:55:09.187Z,100241.59
2019-06-01T20:57:40.400Z,100241.77
2019-06-01T21:00:10.700Z,100232.80
2019-06-01T21:02:55.184Z,100234.89
2019-06-01T21:05:31.669Z,100232.64
2019-06-01T21:08:01.086Z,100233.63
2019-06-01T21:10:30.660Z,100232.51
2019-06-01T21:13:00.168Z,100230.86
2019-06-01T21:15:44.498Z,100224.06
2019-06-01T21:18:09.465Z,100224.80
2019-06-01T21:20:38.882Z,100230.92
2019-06-01T21:23:08.441Z,100227.36
2019-06-01T21:25:37.855Z,100234.59
2019-06-01T21:28:07.412Z,100239.37
2019-06-01T21:30:37.413Z,100238.21
2019-06-01T21:33:06.885Z,100235.14
2019-06-01T21:35:36.408Z,100240.73
2019-06-01T21:38:06.106Z,100240.13
2019-06-01T21:40:35.692Z,100242.45
2019-06-01T21:43:22.905Z,100240.73
2019-06-01T21:45:36.488Z,100247.36
2019-06-01T21:48:06.080Z,100254.50
2019-06-01T21:50:35.583Z,100254.81
2019-06-01T21:53:05.318Z,100262.95
2019-06-01T21:55:35.079Z,100262.22
2019-06-01T21:58:04.557Z,100262.73
2019-06-01T22:00:39.016Z,100261.70
2019-06-01T22:03:08.932Z,100257.66
2019-06-01T22:05:40.160Z,100263.34
2019-06-01T22:08:09.803Z,100257.45
2019-06-01T22:10:39.186Z,100250.95
2019-06-01T22:13:18.732Z,100243.11
2019-06-01T22:15:40.182Z,100251.91
2019-06-01T22:18:09.606Z,100253.98
2019-06-01T22:20:41.517Z,100255.49
2019-06-01T22:23:11.989Z,100253.02
2019-06-01T22:25:41.646Z,100260.78
2019-06-01T22:28:11.513Z,100263.59
2019-06-01T22:30:44.192Z,100272.16
2019-06-01T22:33:13.636Z,100273.12
2019-06-01T22:35:44.461Z,100275.23
2019-06-01T22:38:13.989Z,100276.48
2019-06-01T22:40:43.402Z,100268.55
2019-06-01T22:43:12.818Z,100276.81
2019-06-01T22:45:42.375Z,100277.25
2019-06-01T22:48:11.901Z,100275.91
2019-06-01T22:50:41.379Z,100270.17
2019-06-01T22:53:10.881Z,100272.77
2019-06-01T22:55:40.288Z,100275.27
2019-06-01T22:58:09.926Z,100284.30
2019-06-01T23:00:41.225Z,100283.91
2019-06-01T23:03:10.754Z,100284.03
2019-06-01T23:05:40.183Z,100280.13
2019-06-01T23:08:10.039Z,100283.02
2019-06-01T23:10:39.494Z,100287.29
2019-06-01T23:13:09.094Z,100290.70
2019-06-01T23:15:40.248Z,100290.09
2019-06-01T23:18:09.912Z,100288.45
2019-06-01T23:20:39.410Z,100285.45
2019-06-01T23:23:09.079Z,100287.83
2019-06-01T23:25:38.451Z,100289.69
2019-06-01T23:28:10.001Z,100293.20
2019-06-01T23:30:41.277Z,100300.20
2019-06-01T23:33:10.888Z,100302.16
2019-06-01T23:35:40.317Z,100296.89
2019-06-01T23:38:22.508Z,100300.77
2019-06-01T23:40:51.999Z,100295.19
2019-06-01T23:43:22.615Z,100303.82
2019-06-01T23:45:52.192Z,100296.23
2019-06-01T23:48:23.020Z,100309.40
2019-06-01T23:50:52.639Z,100310.28
2019-06-01T23:53:23.340Z,100313.58
2019-06-01T23:55:52.837Z,100319.13
2019-06-01T23:58:22.198Z,100323.55
